Time;durP1;ratioP1;P1;durP2;ratioP2;P2;SDS_P1;SDS_P2;PMS_P1;PMS_P2;Temp;Humidity;BMP_temperature;BMP_pressure;BME280_temperature;BME280_humidity;BME280_pressure;Samples;Min_cycle;Max_cycle;Signal;HPM_P1;HPM_P2
2023/01/02 06:40:11;;;;;;;;;2.00;1.00;;;;;18.42;53.20;101332.06;5121404;27;45822;-71
2023/01/02 06:42:37;;;;;;;;;1.00;1.00;;;;;18.67;53.46;101322.94;5106066;27;45414;-72
2023/01/02 06:45:03;;;;;;;;;1.00;1.00;;;;;19.43;53.79;101363.59;5111795;27;45383;-73
2023/01/02 06:47:28;;;;;;;;;0.00;0.00;;;;;19.91;54.41;101326.47;5110059;27;45463;-73
2023/01/02 06:49:54;;;;;;;;;0.00;0.00;;;;;20.71;53.56;101364.59;5111671;27;45381;-73
2023/01/02 06:52:19;;;;;;;;;0.33;0.33;;;;;21.00;53.95;101320.72;5110985;27;45519;-72
2023/01/02 06:54:45;;;;;;;;;0.00;0.00;;;;;21.51;53.38;101315.28;5110849;27;45443;-72
2023/01/02 06:57:10;;;;;;;;;0.00;0.00;;;;;22.16;52.65;101354.38;5103365;27;45567;-72
2023/01/02 06:59:35;;;;;;;;;1.00;1.00;;;;;22.41;52.75;101330.44;5106824;27;45412;-72
2023/01/02 07:02:01;;;;;;;;;1.33;1.33;;;;;22.75;52.04;101334.44;5107306;27;45607;-72
2023/01/02 07:04:27;;;;;;;;;1.00;0.00;;;;;23.05;51.60;101337.03;5113106;27;45473;-72
2023/01/02 07:06:53;;;;;;;;;0.00;0.00;;;;;23.46;51.48;101358.34;5111048;27;45835;-72
2023/01/02 07:09:18;;;;;;;;;0.00;0.00;;;;;23.45;51.19;101316.84;5107586;27;46264;-70
2023/01/02 07:11:43;;;;;;;;;1.00;1.00;;;;;23.65;50.92;101317.53;5110272;27;45489;-71
2023/01/02 07:14:09;;;;;;;;;0.00;0.00;;;;;23.87;50.58;101319.91;5098002;27;45504;-70
2023/01/02 07:16:34;;;;;;;;;0.00;0.00;;;;;24.01;50.08;101304.94;5104050;27;45492;-70
2023/01/02 07:18:59;;;;;;;;;1.00;1.00;;;;;24.16;50.20;101306.09;5112325;27;45545;-71
2023/01/02 07:21:25;;;;;;;;;1.00;1.00;;;;;24.38;49.74;101322.00;5106423;27;45466;-70
2023/01/02 07:23:50;;;;;;;;;0.00;0.00;;;;;24.46;49.60;101325.63;5104676;27;45578;-70
2023/01/02 07:26:15;;;;;;;;;0.00;0.00;;;;;24.80;49.53;101361.09;5095524;27;45628;-70
2023/01/02 07:28:41;;;;;;;;;1.00;1.00;;;;;24.91;49.23;101370.81;5110858;27;46204;-71
2023/01/02 07:31:18;;;;;;;;;0.33;0.33;;;;;25.04;49.16;101378.50;5107047;27;45633;-71
2023/01/02 07:33:44;;;;;;;;;0.00;0.00;;;;;25.10;48.91;101380.59;5101949;27;45371;-73
2023/01/02 07:36:15;;;;;;;;;1.00;1.00;;;;;25.21;49.02;101379.41;5101706;27;45391;-73
2023/01/02 07:38:40;;;;;;;;;0.67;0.67;;;;;25.30;48.88;101386.56;5100526;27;47200;-73
2023/01/02 07:41:17;;;;;;;;;0.00;0.00;;;;;25.38;48.34;101393.94;5099463;27;45516;-73
2023/01/02 07:43:43;;;;;;;;;0.00;0.00;;;;;25.44;48.45;101387.81;5101315;27;46853;-74
2023/01/02 07:46:09;;;;;;;;;0.33;0.33;;;;;25.49;47.90;101390.88;5100805;27;45644;-74
2023/01/02 07:48:34;;;;;;;;;1.00;0.00;;;;;25.59;48.33;101398.91;5101591;27;46379;-71
2023/01/02 07:51:01;;;;;;;;;0.00;0.00;;;;;25.68;48.01;101402.50;5093128;27;45453;-73
2023/01/02 07:53:27;;;;;;;;;0.00;0.00;;;;;25.74;47.62;101393.69;5086751;27;45606;-72
2023/01/02 07:55:54;;;;;;;;;0.00;0.00;;;;;25.83;47.59;101405.41;5087568;27;45579;-73
2023/01/02 07:58:19;;;;;;;;;0.00;0.00;;;;;25.85;47.18;101406.09;5081540;27;46770;-70
2023/01/02 08:00:44;;;;;;;;;0.67;0.00;;;;;25.93;47.38;101413.41;5084278;27;45485;-70
2023/01/02 08:03:10;;;;;;;;;0.00;0.00;;;;;26.03;47.32;101424.09;5089014;27;47671;-72
2023/01/02 08:05:35;;;;;;;;;0.00;0.00;;;;;26.02;47.00;101423.28;5085067;27;45506;-74
2023/01/02 08:08:00;;;;;;;;;0.00;0.00;;;;;26.13;47.19;101443.00;5089264;27;46448;-74
2023/01/02 08:10:25;;;;;;;;;0.00;0.00;;;;;26.18;46.59;101454.22;5089120;27;51917;-75
2023/01/02 08:12:51;;;;;;;;;0.00;0.00;;;;;26.22;46.74;101447.44;5085540;27;45614;-75
2023/01/02 08:15:16;;;;;;;;;0.00;0.00;;;;;26.25;46.73;101446.25;5087185;27;45478;-76
2023/01/02 08:17:42;;;;;;;;;0.00;0.00;;;;;26.26;46.09;101439.81;5092321;27;46112;-76
2023/01/02 08:20:09;;;;;;;;;0.00;0.00;;;;;26.29;46.03;101432.13;5087359;27;46031;-75
2023/01/02 08:22:34;;;;;;;;;0.00;0.00;;;;;26.35;46.15;101444.22;5088459;27;45559;-76
2023/01/02 08:24:59;;;;;;;;;0.00;0.00;;;;;26.38;45.89;101445.75;5090782;27;45390;-75
2023/01/02 08:27:25;;;;;;;;;0.00;0.00;;;;;26.43;45.74;101446.94;5097040;27;49386;-75
2023/01/02 08:29:50;;;;;;;;;0.00;0.00;;;;;26.42;45.48;101445.25;5093050;27;48564;-74
2023/01/02 08:32:16;;;;;;;;;1.00;0.00;;;;;26.43;45.62;101459.69;5093353;27;45402;-75
2023/01/02 08:34:41;;;;;;;;;0.00;0.00;;;;;26.41;45.83;101467.19;5092929;27;45794;-75
2023/01/02 08:37:06;;;;;;;;;0.00;0.00;;;;;26.38;45.35;101470.25;5087233;27;51441;-77
2023/01/02 08:39:32;;;;;;;;;0.33;0.33;;;;;26.36;45.59;101470.41;5082965;27;45376;-75
2023/01/02 08:41:57;;;;;;;;;0.00;0.00;;;;;26.37;45.73;101469.41;5088769;27;45732;-77
2023/01/02 08:44:22;;;;;;;;;0.33;0.33;;;;;26.41;45.68;101492.50;5090044;27;45467;-75
2023/01/02 08:46:48;;;;;;;;;0.00;0.00;;;;;26.44;45.55;101511.25;5093107;27;46522;-75
2023/01/02 08:49:13;;;;;;;;;0.00;0.00;;;;;26.47;45.09;101529.09;5087322;27;45472;-75
2023/01/02 08:51:39;;;;;;;;;0.00;0.00;;;;;26.49;44.91;101546.13;5087199;27;45512;-77
2023/01/02 08:54:04;;;;;;;;;0.33;0.33;;;;;26.49;44.92;101556.16;5095364;27;45441;-76
2023/01/02 08:56:31;;;;;;;;;0.00;0.00;;;;;26.49;44.99;101561.59;5091350;27;46062;-76
2023/01/02 08:59:02;;;;;;;;;0.00;0.00;;;;;26.52;45.39;101567.53;5086086;27;45486;-76
2023/01/02 09:01:30;;;;;;;;;0.00;0.00;;;;;26.56;45.39;101584.38;5087477;27;45825;-76
2023/01/02 09:03:55;;;;;;;;;0.00;0.00;;;;;26.58;45.04;101585.09;5094246;27;45477;-75
2023/01/02 09:06:23;;;;;;;;;1.00;1.00;;;;;26.64;44.74;101591.72;5087166;27;48444;-75
2023/01/02 09:08:51;;;;;;;;;0.00;0.00;;;;;26.69;45.11;101594.81;5092306;27;45418;-74
2023/01/02 09:11:21;;;;;;;;;0.00;0.00;;;;;26.71;44.79;101595.47;5094747;27;45381;-74
2023/01/02 09:13:46;;;;;;;;;0.00;0.00;;;;;26.79;44.68;101595.47;5094958;27;45578;-74
2023/01/02 09:16:12;;;;;;;;;0.00;0.00;;;;;26.79;44.63;101591.88;5089997;27;49945;-75
2023/01/02 09:18:38;;;;;;;;;1.00;0.00;;;;;26.83;44.36;101583.22;5084603;27;45489;-78
2023/01/02 09:21:04;;;;;;;;;0.00;0.00;;;;;26.86;45.20;101583.91;5094665;27;45524;-77
2023/01/02 09:23:31;;;;;;;;;0.00;0.00;;;;;26.86;44.03;101587.47;5092073;27;46251;-75
2023/01/02 09:26:00;;;;;;;;;1.00;0.00;;;;;26.91;44.82;101590.53;5092987;27;46158;-73
2023/01/02 09:28:27;;;;;;;;;2.00;0.00;;;;;26.89;44.60;101605.34;5080998;27;45352;-78
2023/01/02 09:30:53;;;;;;;;;0.33;0.33;;;;;26.90;44.17;101609.78;5092374;27;45718;-80
2023/01/02 09:33:18;;;;;;;;;0.00;0.00;;;;;26.91;44.76;101617.78;5095522;27;45511;-78
2023/01/02 09:35:44;;;;;;;;;0.00;0.00;;;;;26.88;44.27;101614.53;5090958;27;45637;-78
2023/01/02 09:38:09;;;;;;;;;0.00;0.00;;;;;26.86;44.21;101606.53;5096300;27;45502;-77
2023/01/02 09:40:37;;;;;;;;;1.00;1.00;;;;;26.87;44.54;101618.28;5087902;27;45422;-75
2023/01/02 09:43:03;;;;;;;;;0.00;0.00;;;;;26.89;44.53;101627.97;5094334;27;45471;-73
2023/01/02 09:45:29;;;;;;;;;0.00;0.00;;;;;26.93;44.61;101634.81;5087496;27;45934;-73
2023/01/02 09:47:57;;;;;;;;;2.00;0.67;;;;;26.97;44.18;101648.94;5093386;27;45513;-75
2023/01/02 09:50:26;;;;;;;;;0.00;0.00;;;;;27.00;44.35;101650.47;5096493;27;45268;-74
2023/01/02 09:52:58;;;;;;;;;0.00;0.00;;;;;27.03;44.42;101671.94;5095760;27;45338;-74
2023/01/02 09:55:58;;;;;;;;;0.00;0.00;;;;;27.02;44.10;101672.97;5092768;27;46400;-73
2023/01/02 09:58:49;;;;;;;;;0.00;0.00;;;;;27.00;43.65;101677.72;5095518;27;45532;-74
2023/01/02 10:01:26;;;;;;;;;0.00;0.00;;;;;26.97;44.10;101687.09;5096166;27;45537;-74
2023/01/02 10:04:22;;;;;;;;;1.00;0.00;;;;;26.93;43.59;101692.03;5108459;27;45566;-76
2023/01/02 10:06:56;;;;;;;;;0.00;0.00;;;;;26.94;44.03;101690.16;5092492;27;45567;-75
2023/01/02 10:09:46;;;;;;;;;0.00;0.00;;;;;26.92;43.45;101682.13;5086875;27;45491;-73
2023/01/02 10:12:34;;;;;;;;;0.00;0.00;;;;;26.97;43.53;101692.53;5102611;27;45425;-74
2023/01/02 10:15:06;;;;;;;;;0.00;0.00;;;;;26.96;43.56;101682.66;5081906;27;45808;-73
2023/01/02 10:17:38;;;;;;;;;0.00;0.00;;;;;26.96;43.08;101678.06;5081026;27;45401;-73
2023/01/02 10:20:06;;;;;;;;;0.00;0.00;;;;;26.99;43.61;101676.03;5081097;27;45650;-73
2023/01/02 10:22:46;;;;;;;;;1.00;1.00;;;;;27.00;43.08;101661.38;5101060;27;45804;-73
2023/01/02 10:25:21;;;;;;;;;0.00;0.00;;;;;27.01;43.83;101649.47;5096015;27;45223;-73
2023/01/02 10:28:11;;;;;;;;;0.67;0.00;;;;;27.02;43.57;101632.94;5103169;27;47031;-72
2023/01/02 10:30:43;;;;;;;;;0.67;0.67;;;;;27.00;43.03;101648.63;5052447;28;45452;-73
2023/01/02 10:33:17;;;;;;;;;0.33;0.00;;;;;27.03;43.65;101658.31;5042205;28;45574;-73
2023/01/02 10:35:45;;;;;;;;;0.00;0.00;;;;;27.03;43.36;101671.94;5046113;28;45536;-73
2023/01/02 10:38:13;;;;;;;;;0.00;0.00;;;;;27.00;43.07;101670.41;5049971;28;45463;-72
2023/01/02 10:40:43;;;;;;;;;0.00;0.00;;;;;27.03;43.64;101688.28;5050390;28;45480;-73
2023/01/02 10:43:10;;;;;;;;;0.00;0.00;;;;;27.03;43.70;101688.28;5048282;28;45543;-72
2023/01/02 10:45:35;;;;;;;;;0.00;0.00;;;;;27.02;43.27;101678.41;5052531;28;45450;-72
2023/01/02 10:48:01;;;;;;;;;1.00;1.00;;;;;27.03;43.08;101691.88;5052287;28;46997;-72
2023/01/02 10:50:31;;;;;;;;;0.00;0.00;;;;;27.11;43.02;101712.81;5052015;28;48925;-74
2023/01/02 10:53:30;;;;;;;;;0.00;0.00;;;;;27.13;42.83;101716.22;5051938;28;47242;-73
2023/01/02 10:56:01;;;;;;;;;0.00;0.00;;;;;27.15;43.43;101718.78;5053451;28;45442;-73
2023/01/02 10:58:28;;;;;;;;;0.67;0.67;;;;;27.16;42.81;101728.66;5058153;28;45798;-77
2023/01/02 11:01:12;;;;;;;;;1.00;1.00;;;;;27.18;43.36;101724.72;5044610;28;45522;-82
2023/01/02 11:03:38;;;;;;;;;0.67;0.00;;;;;27.16;42.78;101723.19;5040752;28;45764;-75
2023/01/02 11:06:03;;;;;;;;;2.00;0.00;;;;;27.12;43.13;101728.13;5051294;28;45495;-79
2023/01/02 11:08:37;;;;;;;;;1.67;0.00;;;;;27.07;42.72;101730.53;5084977;27;46391;-77
2023/01/02 11:11:17;;;;;;;;;0.67;0.67;;;;;27.07;43.40;101730.53;5094713;27;45464;-74
2023/01/02 11:13:44;;;;;;;;;3.00;1.00;;;;;27.16;43.42;101737.69;5086348;27;45362;-75
2023/01/02 11:16:12;;;;;;;;;2.33;2.00;;;;;27.26;42.94;101740.22;5095173;27;45401;-75
2023/01/02 11:18:38;;;;;;;;;1.00;1.00;;;;;27.31;43.22;101728.84;5094396;27;48367;-76
2023/01/02 11:21:06;;;;;;;;;1.33;0.00;;;;;27.43;43.07;101734.78;5091022;27;45595;-77
2023/01/02 11:23:41;;;;;;;;;1.00;1.00;;;;;27.49;42.51;101743.13;5084570;27;45773;-75
2023/01/02 11:26:20;;;;;;;;;1.33;0.00;;;;;27.54;42.62;101739.88;5092808;27;45405;-75
2023/01/02 11:28:49;;;;;;;;;1.67;1.67;;;;;27.58;43.15;101749.41;5100955;27;46212;-74
2023/01/02 11:31:16;;;;;;;;;1.33;0.33;;;;;27.64;42.76;101741.59;5092251;27;45535;-74
2023/01/02 11:33:42;;;;;;;;;0.00;0.00;;;;;27.62;42.93;101739.06;5080745;27;45361;-74
2023/01/02 11:36:10;;;;;;;;;0.00;0.00;;;;;27.64;42.92;101742.47;5094771;27;45551;-75
2023/01/02 11:38:48;;;;;;;;;0.00;0.00;;;;;27.60;42.59;101750.16;5094999;27;47580;-75
2023/01/02 11:44:47;;;;;;;;;2.33;0.00;;;;;27.48;42.19;101752.34;5091268;27;45840;-76
2023/01/02 11:47:14;;;;;;;;;1.33;1.33;;;;;27.41;42.81;101767.66;5087167;27;46552;-75
2023/01/02 11:49:44;;;;;;;;;2.00;1.00;;;;;27.35;42.27;101768.34;5088204;27;45497;-74
2023/01/02 11:52:14;;;;;;;;;2.00;2.00;;;;;27.27;42.08;101763.75;5098855;27;45388;-74
2023/01/02 11:54:53;;;;;;;;;1.67;1.00;;;;;27.19;42.55;101769.19;5096782;27;45558;-75
2023/01/02 11:57:45;;;;;;;;;4.67;0.33;;;;;27.08;42.04;101757.59;5102923;27;45292;-75
2023/01/02 12:00:13;;;;;;;;;0.00;0.00;;;;;27.06;42.65;101764.25;5094214;27;45625;-75
2023/01/02 12:02:44;;;;;;;;;0.00;0.00;;;;;27.01;41.93;101770.19;5103308;27;45534;-75
2023/01/02 12:05:18;;;;;;;;;1.00;1.00;;;;;26.98;42.49;101773.25;5097881;27;45429;-75
2023/01/02 12:07:46;;;;;;;;;1.00;1.00;;;;;26.93;42.76;101784.63;5093125;27;45593;-75
2023/01/02 12:10:24;;;;;;;;;0.67;0.67;;;;;26.90;42.65;101800.44;5094176;27;45419;-74
2023/01/02 12:12:52;;;;;;;;;0.00;0.00;;;;;26.85;42.67;101798.19;5077520;27;45797;-75
2023/01/02 12:15:28;;;;;;;;;0.00;0.00;;;;;26.80;42.39;101787.81;5080704;27;45726;-75
2023/01/02 12:18:15;;;;;;;;;0.67;0.00;;;;;26.78;42.04;101805.34;5087604;27;45572;-75
2023/01/02 12:20:59;;;;;;;;;0.33;0.33;;;;;26.75;42.07;101811.09;5082996;27;45459;-75
2023/01/02 12:23:43;;;;;;;;;0.00;0.00;;;;;26.65;41.98;101801.19;5095035;27;45935;-74
2023/01/02 12:26:50;;;;;;;;;1.00;1.00;;;;;26.69;41.95;101805.28;5097900;27;45485;-74
2023/01/02 12:29:30;;;;;;;;;1.00;1.00;;;;;26.63;42.31;101807.81;5100843;27;45422;-75
2023/01/02 12:32:31;;;;;;;;;0.67;0.00;;;;;26.61;42.49;101798.97;5094555;27;46621;-75
2023/01/02 12:35:16;;;;;;;;;2.33;0.33;;;;;26.54;41.81;101794.19;5036026;28;45581;-75
2023/01/02 12:37:50;;;;;;;;;0.33;0.00;;;;;26.50;42.21;101792.81;5017348;28;45634;-75
2023/01/02 12:40:43;;;;;;;;;1.00;1.00;;;;;26.48;42.57;101796.72;5033690;28;45802;-70
2023/01/02 12:43:23;;;;;;;;;0.00;0.00;;;;;26.49;41.98;101795.69;5034562;28;46455;-70
2023/01/02 12:46:21;;;;;;;;;2.00;0.67;;;;;26.40;41.74;101803.81;5036751;28;45500;-71
2023/01/02 12:48:55;;;;;;;;;0.33;0.33;;;;;26.39;42.26;101807.56;5033435;28;45475;-71
2023/01/02 12:51:46;;;;;;;;;0.67;0.67;;;;;26.36;42.27;101816.03;5018095;28;45553;-67
2023/01/02 12:54:38;;;;;;;;;0.00;0.00;;;;;26.31;41.98;101816.53;5029484;28;45556;-68
2023/01/02 12:57:29;;;;;;;;;1.00;1.00;;;;;26.28;42.13;101829.63;5040945;28;45630;-68
2023/01/02 13:00:13;;;;;;;;;1.67;1.67;;;;;26.24;42.19;101830.91;5044193;28;45516;-69
2023/01/02 13:03:03;;;;;;;;;2.33;2.00;;;;;26.18;41.71;101838.72;5023974;28;45420;-69
2023/01/02 13:08:24;;;;;;;;;1.00;1.00;;;;;26.08;41.55;101847.97;5115062;27;45604;-69
2023/01/02 13:10:52;;;;;;;;;1.00;1.00;;;;;26.10;41.76;101851.38;5103616;27;45904;-68
2023/01/02 13:13:20;;;;;;;;;2.00;0.00;;;;;26.13;41.92;101845.63;5113114;27;45577;-71
2023/01/02 13:15:49;;;;;;;;;1.00;1.00;;;;;26.23;42.04;101848.25;5110749;27;45347;-69
2023/01/02 13:18:44;;;;;;;;;3.00;0.00;;;;;26.31;42.03;101849.19;5098375;27;47727;-70
2023/01/02 13:21:26;;;;;;;;;1.00;1.00;;;;;26.41;41.52;101856.38;5107150;27;45493;-69
2023/01/02 13:23:53;;;;;;;;;2.00;1.00;;;;;26.49;41.55;101861.03;5113473;27;45415;-70
2023/01/02 13:26:22;;;;;;;;;1.00;1.00;;;;;26.60;42.05;101868.06;5113062;27;45867;-71
2023/01/02 13:29:08;;;;;;;;;0.00;0.00;;;;;26.72;41.56;101868.63;5119992;27;46810;-69
2023/01/02 13:31:46;;;;;;;;;0.00;0.00;;;;;26.83;41.60;101868.34;5108383;27;45322;-71
2023/01/02 13:34:22;;;;;;;;;1.33;1.33;;;;;26.93;41.68;101879.97;5099861;27;45501;-71
2023/01/02 13:36:48;;;;;;;;;0.67;0.00;;;;;27.00;41.35;101873.84;5105497;27;45464;-70
2023/01/02 13:39:42;;;;;;;;;0.00;0.00;;;;;27.07;41.75;101878.50;5101268;27;45518;-69
2023/01/02 13:45:11;;;;;;;;;1.00;1.00;;;;;27.18;41.62;101885.50;5106861;27;45297;-69
2023/01/02 13:47:37;;;;;;;;;1.00;1.00;;;;;27.20;41.34;101885.34;5111173;27;45522;-69
2023/01/02 13:50:20;;;;;;;;;1.00;1.00;;;;;27.24;41.48;101881.28;5109160;27;45422;-70
2023/01/02 13:53:11;;;;;;;;;0.00;0.00;;;;;27.27;41.04;101886.41;5110817;27;45354;-69
2023/01/02 13:55:39;;;;;;;;;0.67;0.67;;;;;27.27;41.54;101885.53;5087856;27;45915;-69
2023/01/02 13:58:11;;;;;;;;;1.00;1.00;;;;;27.28;41.39;101895.41;5086355;27;45935;-70
2023/01/02 14:00:39;;;;;;;;;0.00;0.00;;;;;27.27;41.51;101896.44;5087319;27;45494;-70
2023/01/02 14:03:23;;;;;;;;;0.00;0.00;;;;;27.25;40.96;101896.59;5086705;27;45400;-69
2023/01/02 14:06:00;;;;;;;;;0.00;0.00;;;;;27.25;41.54;101902.03;5062315;27;45526;-69
2023/01/02 14:08:28;;;;;;;;;2.00;0.00;;;;;27.23;40.78;101894.03;5084226;27;45495;-68
2023/01/02 14:11:26;;;;;;;;;0.00;0.00;;;;;27.22;41.38;101905.97;5081832;27;45970;-68
2023/01/02 14:13:54;;;;;;;;;0.00;0.00;;;;;27.20;40.94;101915.31;5086322;27;45481;-68
2023/01/02 14:16:29;;;;;;;;;0.00;0.00;;;;;27.19;41.45;101910.91;5087971;27;45490;-70
2023/01/02 14:19:11;;;;;;;;;0.00;0.00;;;;;27.17;41.10;101913.78;5063968;27;45758;-70
2023/01/02 14:21:42;;;;;;;;;1.00;1.00;;;;;27.15;41.49;101917.69;5067501;28;45546;-71
2023/01/02 14:24:11;;;;;;;;;1.33;1.00;;;;;27.13;41.16;101920.56;5069143;28;45503;-69
2023/01/02 14:26:38;;;;;;;;;0.00;0.00;;;;;27.07;41.31;101919.38;5077120;27;45551;-71
2023/01/02 14:29:09;;;;;;;;;1.00;0.00;;;;;27.06;40.81;101920.38;5047761;28;45436;-71
2023/01/02 14:31:35;;;;;;;;;1.00;1.00;;;;;27.00;40.95;101923.75;5069138;27;45561;-69
2023/01/02 14:34:01;;;;;;;;;3.00;2.00;;;;;26.95;40.65;101937.03;5086278;27;45469;-68
2023/01/02 14:36:35;;;;;;;;;0.00;0.00;;;;;26.91;41.06;101936.47;5090442;27;45401;-67
2023/01/02 14:39:01;;;;;;;;;0.00;0.00;;;;;26.90;40.66;101940.22;5082265;27;45564;-67
2023/01/02 14:44:50;;;;;;;;;0.00;0.00;;;;;26.87;41.05;101936.94;5095515;27;45889;-69
2023/01/02 14:47:34;;;;;;;;;0.00;0.00;;;;;26.92;40.68;101945.47;5087056;27;45405;-69
2023/01/02 14:50:03;;;;;;;;;0.00;0.00;;;;;26.93;41.31;101950.81;5096864;27;46329;-68
2023/01/02 14:52:34;;;;;;;;;1.00;1.00;;;;;26.93;41.22;101958.97;5092949;27;46783;-68
2023/01/02 14:55:09;;;;;;;;;0.00;0.00;;;;;26.94;41.05;101966.13;5096947;27;45410;-69
2023/01/02 14:57:37;;;;;;;;;1.67;1.67;;;;;26.94;40.69;101974.28;5094685;27;45537;-71
2023/01/02 15:00:14;;;;;;;;;0.00;0.00;;;;;26.91;40.82;101969.16;5094862;27;45705;-69
2023/01/02 15:02:44;;;;;;;;;0.00;0.00;;;;;26.93;40.76;101982.63;5094733;27;45378;-68
2023/01/02 15:05:20;;;;;;;;;1.00;1.00;;;;;26.92;40.88;101995.38;5092340;27;46346;-68
2023/01/02 15:07:53;;;;;;;;;0.00;0.00;;;;;26.90;40.97;101996.56;5091169;27;45377;-68
2023/01/02 15:10:21;;;;;;;;;0.00;0.00;;;;;26.89;40.64;102001.13;5089106;27;46549;-69
2023/01/02 15:13:02;;;;;;;;;1.00;1.00;;;;;26.85;40.92;102002.47;5095114;27;45427;-68
2023/01/02 15:15:42;;;;;;;;;0.00;0.00;;;;;26.82;40.68;102005.53;5088592;27;45460;-69
2023/01/02 15:18:24;;;;;;;;;1.00;1.00;;;;;26.79;41.07;102004.00;5095355;27;45248;-70
2023/01/02 15:20:52;;;;;;;;;0.00;0.00;;;;;26.79;41.26;102012.16;5088325;27;45629;-68
2023/01/02 15:23:23;;;;;;;;;1.00;1.00;;;;;26.79;40.96;102020.34;5092521;27;46844;-68
2023/01/02 15:25:48;;;;;;;;;1.00;0.00;;;;;26.79;40.57;102019.47;5089131;27;45470;-68
2023/01/02 15:28:31;;;;;;;;;0.33;0.33;;;;;26.76;40.88;102020.63;5090730;27;45406;-68
2023/01/02 15:31:02;;;;;;;;;0.00;0.00;;;;;26.80;40.68;102026.63;5084357;27;45456;-68
2023/01/02 15:33:32;;;;;;;;;2.00;0.00;;;;;26.77;40.66;102018.78;5103638;27;45543;-70
2023/01/02 15:36:01;;;;;;;;;1.00;1.00;;;;;26.73;41.08;102018.22;5084338;27;45552;-70
2023/01/02 15:38:27;;;;;;;;;1.33;0.33;;;;;26.70;41.00;102016.69;5093360;27;45650;-66
2023/01/02 15:40:54;;;;;;;;;2.00;1.00;;;;;26.70;40.63;102024.84;5095185;27;45430;-66
2023/01/02 15:46:04;;;;;;;;;2.67;2.00;;;;;26.64;40.91;102021.94;5093990;27;45328;-68
2023/01/02 15:48:31;;;;;;;;;5.67;4.00;;;;;26.68;40.66;102031.47;5091687;27;45453;-70
2023/01/02 15:50:58;;;;;;;;;3.33;1.00;;;;;26.70;40.72;102029.44;5103106;27;45927;-68
2023/01/02 15:53:29;;;;;;;;;2.00;2.00;;;;;26.70;40.94;102037.63;5095213;27;45461;-69
2023/01/02 15:55:55;;;;;;;;;2.00;2.00;;;;;26.71;41.09;102042.06;5094198;27;45490;-69
2023/01/02 15:58:24;;;;;;;;;2.00;2.00;;;;;26.77;40.34;102037.84;5093724;27;45546;-68
2023/01/02 16:01:26;;;;;;;;;1.67;1.00;;;;;26.82;40.92;102043.66;5079417;27;45514;-67
2023/01/02 16:04:01;;;;;;;;;1.00;1.00;;;;;26.82;40.93;102041.78;5093268;27;45499;-68
2023/01/02 16:06:37;;;;;;;;;1.00;1.00;;;;;26.88;40.45;102056.63;5094955;27;45433;-68
2023/01/02 16:09:05;;;;;;;;;2.50;1.50;;;;;26.86;40.88;102050.50;5102187;27;45546;-68
2023/01/02 16:11:34;;;;;;;;;1.00;1.00;;;;;26.91;40.54;102056.34;5096241;27;45464;-67
2023/01/02 16:14:18;;;;;;;;;2.00;2.00;;;;;26.88;40.83;102048.47;5090308;27;46085;-68
2023/01/02 16:17:03;;;;;;;;;3.00;1.00;;;;;26.97;40.79;102065.75;5096430;27;45656;-68
2023/01/02 16:19:43;;;;;;;;;2.00;2.00;;;;;26.98;40.50;102067.47;5090233;27;45484;-67
2023/01/02 16:22:27;;;;;;;;;2.33;2.33;;;;;26.98;40.67;102072.94;5089102;27;45403;-67
2023/01/02 16:25:12;;;;;;;;;0.33;0.33;;;;;26.98;40.15;102067.47;5094686;27;45646;-70
2023/01/02 16:28:04;;;;;;;;;1.00;1.00;;;;;26.96;40.29;102072.22;5081350;27;45382;-67
2023/01/02 16:30:44;;;;;;;;;4.00;2.67;;;;;26.98;40.19;102081.09;5093944;27;45949;-68
2023/01/02 16:33:21;;;;;;;;;1.67;1.00;;;;;26.98;40.76;102083.81;5094194;27;45648;-68
2023/01/02 16:35:52;;;;;;;;;2.00;2.00;;;;;26.98;40.71;102088.41;5094640;27;45516;-68
2023/01/02 16:38:20;;;;;;;;;3.33;1.00;;;;;26.98;40.13;102093.84;5093887;27;45401;-68
2023/01/02 16:40:56;;;;;;;;;2.00;2.00;;;;;26.98;40.59;102089.28;5094470;27;45372;-69
2023/01/02 16:43:22;;;;;;;;;1.67;1.00;;;;;27.00;40.67;102100.84;5090993;27;45377;-68
2023/01/02 16:45:49;;;;;;;;;2.67;2.67;;;;;26.98;40.20;102097.44;5094928;27;45981;-68
2023/01/02 16:48:23;;;;;;;;;4.00;3.67;;;;;27.02;40.77;102104.25;5087585;27;45827;-67
2023/01/02 16:50:52;;;;;;;;;3.00;3.00;;;;;26.96;40.88;102107.63;5087743;27;45810;-68
2023/01/02 16:53:30;;;;;;;;;3.00;2.00;;;;;26.93;40.64;102108.81;5092007;27;45439;-67
2023/01/02 16:55:55;;;;;;;;;2.00;2.00;;;;;26.93;40.27;102116.09;5079416;27;45979;-68
2023/01/02 16:58:21;;;;;;;;;5.00;4.00;;;;;26.91;40.37;102121.72;5095337;27;45428;-67
2023/01/02 17:00:48;;;;;;;;;2.00;2.00;;;;;26.87;40.85;102117.59;5090704;27;45460;-67
2023/01/02 17:03:22;;;;;;;;;2.00;2.00;;;;;26.87;40.81;102123.03;5106605;27;45661;-68
2023/01/02 17:05:56;;;;;;;;;4.00;3.00;;;;;26.89;40.17;102131.88;5098054;27;45439;-68
2023/01/02 17:08:21;;;;;;;;;4.33;4.33;;;;;26.90;40.84;102132.75;5093852;27;45429;-69
2023/01/02 17:10:47;;;;;;;;;1.67;1.67;;;;;26.87;40.54;102133.06;5094810;27;45427;-68
2023/01/02 17:13:12;;;;;;;;;3.67;3.00;;;;;26.86;40.29;102134.94;5090189;27;45609;-68
2023/01/02 17:15:40;;;;;;;;;3.00;3.00;;;;;26.85;40.51;102127.75;5090435;27;46167;-68
2023/01/02 17:18:06;;;;;;;;;2.67;2.67;;;;;26.84;40.41;102139.69;5091986;27;45530;-69
2023/01/02 17:20:32;;;;;;;;;2.00;2.00;;;;;26.86;40.51;102139.53;5094720;27;45449;-68
2023/01/02 17:22:57;;;;;;;;;2.33;2.00;;;;;26.87;40.99;102146.69;5083041;27;45582;-70
2023/01/02 17:25:23;;;;;;;;;4.00;2.67;;;;;26.88;40.31;102134.75;5091271;27;46306;-68
2023/01/02 17:27:49;;;;;;;;;6.00;3.00;;;;;26.88;40.99;102151.97;5092620;27;45626;-69
2023/01/02 17:30:15;;;;;;;;;2.33;2.00;;;;;26.91;40.75;102153.53;5094882;27;45617;-68
2023/01/02 17:32:41;;;;;;;;;2.00;2.00;;;;;26.93;40.38;102157.84;5092477;27;45496;-68
2023/01/02 17:35:07;;;;;;;;;2.00;2.00;;;;;26.95;40.42;102158.56;5094369;27;46444;-68
2023/01/02 17:37:33;;;;;;;;;4.00;4.00;;;;;26.96;40.20;102162.97;5092074;27;45422;-68
2023/01/02 17:39:59;;;;;;;;;2.67;2.67;;;;;26.98;40.68;102167.41;5094392;27;45412;-68
2023/01/02 17:42:24;;;;;;;;;4.33;3.00;;;;;27.00;40.44;102171.69;5082626;27;51599;-68
2023/01/02 17:44:50;;;;;;;;;2.00;2.00;;;;;26.99;40.65;102171.84;5089827;27;46272;-68
2023/01/02 17:47:15;;;;;;;;;2.00;2.00;;;;;27.01;40.92;102178.00;5091439;27;45395;-68
2023/01/02 17:49:41;;;;;;;;;2.33;2.33;;;;;26.98;40.69;102179.19;5094945;27;45411;-67
2023/01/02 17:52:08;;;;;;;;;4.67;3.67;;;;;26.98;40.35;102181.03;5091145;27;45353;-66
2023/01/02 17:54:34;;;;;;;;;5.00;3.00;;;;;27.01;39.79;102180.72;5112604;27;47079;-66
2023/01/02 17:57:00;;;;;;;;;6.67;4.00;;;;;26.94;40.83;102183.22;5095903;27;45873;-66
2023/01/02 17:59:25;;;;;;;;;4.00;3.00;;;;;26.95;40.47;102191.25;5092213;27;45654;-69
2023/01/02 18:01:51;;;;;;;;;3.00;1.33;;;;;26.90;40.78;102188.09;5086617;27;45401;-68
2023/01/02 18:04:17;;;;;;;;;2.00;2.00;;;;;26.87;40.33;102188.41;5084265;27;46147;-68
2023/01/02 18:06:42;;;;;;;;;3.00;3.00;;;;;26.88;40.78;102190.13;5085571;27;45745;-69
2023/01/02 18:09:08;;;;;;;;;2.00;2.00;;;;;26.69;40.82;102172.09;5095421;27;45806;-67
2023/01/02 18:11:34;;;;;;;;;3.00;3.00;;;;;26.70;40.59;102173.78;5097550;27;45516;-68
2023/01/02 18:14:01;;;;;;;;;4.00;4.00;;;;;26.66;41.12;102175.97;5096009;27;46487;-68
